Time;durP1;ratioP1;P1;durP2;ratioP2;P2;SDS_P1;SDS_P2;PMS_P1;PMS_P2;Temp;Humidity;BMP_temperature;BMP_pressure;BME280_temperature;BME280_humidity;BME280_pressure;Samples;Min_cycle;Max_cycle;Signal;HPM_P1;HPM_P2
2022/09/04 00:02:06;;;;;;;14.85;4.97;;;;;;;;;;3367612;42;20116;-58
2022/09/04 00:04:42;;;;;;;11.07;5.13;;;;;;;;;;3366570;42;20152;-58
2022/09/04 00:07:14;;;;;;;12.25;4.95;;;;;;;;;;3365301;42;20123;-59
2022/09/04 00:09:56;;;;;;;11.02;4.88;;;;;;;;;;3366754;42;20570;-58
2022/09/04 00:12:28;;;;;;;11.67;5.63;;;;;;;;;;3365434;42;20526;-59
2022/09/04 00:15:03;;;;;;;11.35;4.97;;;;;;;;;;3365350;42;20098;-57
2022/09/04 00:17:50;;;;;;;13.18;5.22;;;;;;;;;;3365282;42;20083;-58
2022/09/04 00:20:36;;;;;;;16.05;5.32;;;;;;;;;;3351559;42;20143;-58
2022/09/04 00:23:08;;;;;;;10.75;4.85;;;;;;;;;;3366352;42;20098;-58
2022/09/04 00:25:44;;;;;;;12.17;4.70;;;;;;;;;;3366766;42;20106;-59
2022/09/04 00:28:27;;;;;;;10.50;4.72;;;;;;;;;;3366373;42;20635;-59
2022/09/04 00:30:58;;;;;;;10.55;4.70;;;;;;;;;;3366790;42;20104;-60
2022/09/04 00:33:56;;;;;;;12.32;4.80;;;;;;;;;;3352000;42;20083;-57
2022/09/04 00:36:23;;;;;;;12.63;4.95;;;;;;;;;;3363585;42;20100;-58
2022/09/04 00:38:54;;;;;;;11.87;4.80;;;;;;;;;;3365195;42;20566;-58
2022/09/04 00:41:33;;;;;;;11.80;5.18;;;;;;;;;;3365509;42;20181;-58
2022/09/04 00:43:59;;;;;;;12.18;5.10;;;;;;;;;;3364949;42;20594;-58
2022/09/04 00:47:01;;;;;;;11.38;4.57;;;;;;;;;;3366270;42;20106;-59
2022/09/04 00:49:43;;;;;;;12.35;5.47;;;;;;;;;;3365110;42;20227;-57
2022/09/04 00:52:28;;;;;;;10.97;4.97;;;;;;;;;;3364978;42;20096;-59
2022/09/04 00:55:00;;;;;;;12.05;5.50;;;;;;;;;;3367568;42;20129;-60
2022/09/04 00:57:38;;;;;;;9.98;4.57;;;;;;;;;;3367508;42;20849;-59
2022/09/04 01:00:15;;;;;;;11.23;4.93;;;;;;;;;;3366734;42;20112;-60
2022/09/04 01:03:17;;;;;;;11.68;4.65;;;;;;;;;;3365059;42;20126;-58
2022/09/04 01:06:11;;;;;;;11.57;4.90;;;;;;;;;;3365605;42;20103;-59
2022/09/04 01:09:00;;;;;;;13.05;4.95;;;;;;;;;;3362710;42;20091;-62
2022/09/04 01:11:28;;;;;;;11.55;5.15;;;;;;;;;;3365900;42;20172;-59
2022/09/04 01:13:59;;;;;;;12.82;4.78;;;;;;;;;;3362010;42;20103;-59
2022/09/04 01:16:26;;;;;;;11.25;5.00;;;;;;;;;;3360742;42;20203;-59
2022/09/04 01:19:35;;;;;;;11.10;5.10;;;;;;;;;;3362531;42;20142;-60
2022/09/04 01:22:04;;;;;;;11.13;5.18;;;;;;;;;;3364936;42;20660;-60
2022/09/04 01:24:51;;;;;;;13.90;4.88;;;;;;;;;;3362068;42;20096;-59
2022/09/04 01:27:26;;;;;;;12.50;5.30;;;;;;;;;;3359951;42;20088;-59
2022/09/04 01:30:11;;;;;;;11.07;4.95;;;;;;;;;;3364710;42;20106;-59
2022/09/04 01:32:55;;;;;;;10.80;4.93;;;;;;;;;;3365872;42;20131;-59
2022/09/04 01:35:39;;;;;;;11.15;4.93;;;;;;;;;;3366076;42;20092;-59
2022/09/04 01:38:14;;;;;;;12.73;5.95;;;;;;;;;;3366904;42;20521;-59
2022/09/04 01:40:42;;;;;;;13.27;5.80;;;;;;;;;;3364471;42;20088;-59
2022/09/04 01:43:20;;;;;;;14.73;5.80;;;;;;;;;;3365628;42;20159;-59
2022/09/04 01:46:01;;;;;;;11.33;5.20;;;;;;;;;;3364673;42;20084;-59
2022/09/04 01:49:04;;;;;;;14.68;6.20;;;;;;;;;;3365834;42;20135;-59
2022/09/04 01:51:33;;;;;;;11.52;5.07;;;;;;;;;;3362156;42;20095;-60
2022/09/04 01:54:05;;;;;;;13.70;5.15;;;;;;;;;;3367083;42;20151;-58
2022/09/04 01:56:51;;;;;;;12.07;5.78;;;;;;;;;;3364770;42;20132;-56
2022/09/04 01:59:36;;;;;;;13.63;5.97;;;;;;;;;;3364926;42;20080;-59
2022/09/04 02:02:25;;;;;;;13.15;5.45;;;;;;;;;;3361929;42;20095;-58
2022/09/04 02:05:09;;;;;;;14.23;5.75;;;;;;;;;;3343781;42;20103;-59
2022/09/04 02:08:14;;;;;;;13.88;5.90;;;;;;;;;;3366688;42;20110;-59
2022/09/04 02:10:57;;;;;;;13.02;5.53;;;;;;;;;;3356703;42;20092;-60
2022/09/04 02:13:36;;;;;;;15.60;6.43;;;;;;;;;;3366295;42;20143;-59
2022/09/04 02:16:18;;;;;;;12.80;6.15;;;;;;;;;;3366325;42;20135;-57
2022/09/04 02:18:59;;;;;;;11.23;5.78;;;;;;;;;;3366271;42;20076;-59
2022/09/04 02:21:43;;;;;;;12.63;6.30;;;;;;;;;;3367550;42;20135;-58
2022/09/04 02:24:34;;;;;;;13.02;5.88;;;;;;;;;;3366405;42;20493;-58
2022/09/04 02:27:28;;;;;;;12.17;5.87;;;;;;;;;;3358168;42;20091;-60
2022/09/04 02:30:13;;;;;;;12.80;6.53;;;;;;;;;;3356153;42;20091;-58
2022/09/04 02:32:45;;;;;;;12.20;5.60;;;;;;;;;;3369620;42;20099;-58
2022/09/04 02:35:55;;;;;;;12.82;5.85;;;;;;;;;;3366938;42;20569;-59
2022/09/04 02:38:31;;;;;;;13.27;5.70;;;;;;;;;;3360080;42;20143;-58
2022/09/04 02:41:22;;;;;;;15.00;5.60;;;;;;;;;;3366160;42;20626;-59
2022/09/04 02:44:27;;;;;;;10.93;5.70;;;;;;;;;;3367326;42;20103;-58
2022/09/04 02:47:01;;;;;;;12.77;6.25;;;;;;;;;;3364800;42;20098;-59
2022/09/04 02:49:39;;;;;;;12.90;5.60;;;;;;;;;;3365697;42;20118;-59
2022/09/04 02:52:16;;;;;;;13.32;5.68;;;;;;;;;;3367077;42;20609;-59
2022/09/04 02:55:02;;;;;;;13.97;6.10;;;;;;;;;;3366211;42;20111;-58
2022/09/04 02:57:55;;;;;;;11.60;5.50;;;;;;;;;;3365923;42;20582;-59
2022/09/04 03:00:53;;;;;;;12.75;6.13;;;;;;;;;;3359712;42;20092;-60
2022/09/04 03:03:23;;;;;;;12.27;5.97;;;;;;;;;;3354191;42;20126;-60
2022/09/04 03:05:55;;;;;;;12.45;6.13;;;;;;;;;;3366202;42;20207;-59
2022/09/04 03:08:37;;;;;;;13.43;6.20;;;;;;;;;;3366238;42;20087;-60
2022/09/04 03:11:17;;;;;;;13.02;6.00;;;;;;;;;;3366364;42;20096;-60
2022/09/04 03:13:51;;;;;;;13.15;6.55;;;;;;;;;;3366239;42;20184;-58
2022/09/04 03:16:26;;;;;;;13.68;6.05;;;;;;;;;;3366239;42;20165;-57
2022/09/04 03:19:19;;;;;;;13.10;5.90;;;;;;;;;;3366227;42;20101;-60
2022/09/04 03:21:45;;;;;;;14.80;5.63;;;;;;;;;;3364517;42;20182;-58
2022/09/04 03:24:37;;;;;;;10.98;5.32;;;;;;;;;;3368748;42;20107;-58
2022/09/04 03:27:05;;;;;;;12.48;5.00;;;;;;;;;;3363457;42;20092;-56
2022/09/04 03:30:06;;;;;;;12.50;4.35;;;;;;;;;;3360780;42;20817;-59
2022/09/04 03:32:45;;;;;;;11.15;4.55;;;;;;;;;;3359303;42;20158;-57
2022/09/04 03:35:34;;;;;;;12.97;4.80;;;;;;;;;;3367113;42;20459;-58
2022/09/04 03:38:06;;;;;;;11.90;4.35;;;;;;;;;;3361801;42;20665;-58
2022/09/04 03:40:35;;;;;;;8.68;4.20;;;;;;;;;;3360804;42;20080;-58
2022/09/04 03:43:39;;;;;;;12.57;4.07;;;;;;;;;;3365951;42;20139;-59
2022/09/04 03:46:18;;;;;;;8.63;4.00;;;;;;;;;;3354748;42;20079;-58
2022/09/04 03:49:12;;;;;;;11.40;4.37;;;;;;;;;;3365667;42;20157;-58
2022/09/04 03:51:55;;;;;;;10.57;4.35;;;;;;;;;;3364000;42;20099;-60
2022/09/04 03:54:37;;;;;;;9.57;4.30;;;;;;;;;;3366849;42;20591;-60
2022/09/04 03:57:19;;;;;;;10.25;4.03;;;;;;;;;;3367092;42;20150;-57
2022/09/04 03:59:51;;;;;;;10.93;3.88;;;;;;;;;;3365706;42;20497;-57
2022/09/04 04:02:20;;;;;;;9.30;3.83;;;;;;;;;;3366513;42;20163;-58
2022/09/04 04:05:15;;;;;;;10.68;4.85;;;;;;;;;;3367539;42;20167;-59
2022/09/04 04:07:53;;;;;;;8.77;3.92;;;;;;;;;;3364111;42;20092;-58
2022/09/04 04:10:19;;;;;;;13.65;4.15;;;;;;;;;;3367696;42;20627;-59
2022/09/04 04:13:03;;;;;;;9.03;3.60;;;;;;;;;;3367252;42;20087;-57
2022/09/04 04:15:42;;;;;;;9.75;3.60;;;;;;;;;;3366581;42;20079;-58
2022/09/04 04:18:27;;;;;;;8.77;3.55;;;;;;;;;;3364696;42;20088;-59
2022/09/04 04:21:17;;;;;;;10.48;3.53;;;;;;;;;;3367265;42;20625;-59
2022/09/04 04:24:13;;;;;;;8.85;3.60;;;;;;;;;;3366535;42;20542;-60
2022/09/04 04:27:08;;;;;;;7.27;3.00;;;;;;;;;;3359816;42;20139;-62
2022/09/04 04:30:07;;;;;;;7.93;3.40;;;;;;;;;;3358958;42;20110;-59
2022/09/04 04:32:58;;;;;;;8.00;3.42;;;;;;;;;;3364744;42;20146;-61
2022/09/04 04:35:33;;;;;;;6.60;3.08;;;;;;;;;;3361726;42;20106;-60
2022/09/04 04:38:43;;;;;;;8.43;3.30;;;;;;;;;;3364982;42;20151;-60
2022/09/04 04:41:31;;;;;;;9.40;3.20;;;;;;;;;;3337545;42;20099;-59
2022/09/04 04:44:07;;;;;;;8.70;3.47;;;;;;;;;;3364577;42;20102;-59
2022/09/04 04:47:14;;;;;;;7.50;3.38;;;;;;;;;;3364771;42;20095;-59
2022/09/04 04:50:02;;;;;;;8.93;3.10;;;;;;;;;;3359891;42;20096;-59
2022/09/04 04:52:31;;;;;;;7.88;3.38;;;;;;;;;;3359679;42;20099;-60
2022/09/04 04:55:23;;;;;;;7.00;2.97;;;;;;;;;;3360217;42;20084;-60
2022/09/04 04:58:04;;;;;;;8.98;3.50;;;;;;;;;;3355011;42;20087;-60
2022/09/04 05:00:48;;;;;;;8.95;3.65;;;;;;;;;;3365932;42;20138;-60
2022/09/04 05:03:57;;;;;;;9.02;3.70;;;;;;;;;;3363026;42;20158;-60
2022/09/04 05:07:20;;;;;;;7.07;3.40;;;;;;;;;;3369251;42;20099;-62
2022/09/04 05:10:08;;;;;;;10.43;3.70;;;;;;;;;;3363446;42;20750;-59
2022/09/04 05:13:15;;;;;;;8.90;3.50;;;;;;;;;;3369725;42;20103;-57
2022/09/04 05:16:03;;;;;;;7.95;3.08;;;;;;;;;;3370163;42;20087;-58
2022/09/04 05:18:48;;;;;;;7.07;3.20;;;;;;;;;;3359852;42;20087;-59
2022/09/04 05:21:23;;;;;;;8.93;3.40;;;;;;;;;;3357913;42;20134;-59
2022/09/04 05:24:10;;;;;;;8.40;3.43;;;;;;;;;;3372433;42;20099;-58
2022/09/04 05:27:06;;;;;;;8.93;3.20;;;;;;;;;;3368505;42;20103;-60
2022/09/04 05:29:54;;;;;;;8.13;3.78;;;;;;;;;;3372352;42;20094;-58
2022/09/04 05:32:48;;;;;;;8.20;3.30;;;;;;;;;;3362834;42;20106;-61
2022/09/04 05:35:34;;;;;;;8.48;3.40;;;;;;;;;;3364350;42;20091;-61
2022/09/04 05:38:02;;;;;;;8.20;3.30;;;;;;;;;;3364145;42;20095;-58
2022/09/04 05:41:14;;;;;;;8.35;3.13;;;;;;;;;;3366871;42;20145;-60
2022/09/04 05:43:59;;;;;;;7.32;2.78;;;;;;;;;;3358017;42;20562;-60
2022/09/04 05:46:55;;;;;;;7.65;3.17;;;;;;;;;;3368660;42;20583;-59
2022/09/04 05:49:49;;;;;;;7.95;3.45;;;;;;;;;;3365484;42;20550;-59
2022/09/04 05:52:56;;;;;;;11.33;3.40;;;;;;;;;;3365351;42;20127;-59
2022/09/04 05:55:31;;;;;;;7.43;2.80;;;;;;;;;;3363062;42;20148;-62
2022/09/04 05:58:18;;;;;;;7.45;3.08;;;;;;;;;;3368045;42;20102;-61
2022/09/04 06:01:08;;;;;;;9.98;3.00;;;;;;;;;;3367264;42;20162;-60
2022/09/04 06:03:34;;;;;;;8.45;3.35;;;;;;;;;;3365186;42;20099;-60
2022/09/04 06:06:19;;;;;;;14.20;3.40;;;;;;;;;;3372937;42;20103;-60
2022/09/04 06:09:14;;;;;;;9.35;3.13;;;;;;;;;;3359068;42;20088;-60
2022/09/04 06:11:52;;;;;;;7.90;3.08;;;;;;;;;;3358096;42;20111;-60
2022/09/04 06:14:28;;;;;;;10.15;3.25;;;;;;;;;;3367105;42;20138;-60
2022/09/04 06:17:13;;;;;;;8.10;2.70;;;;;;;;;;3365745;42;20094;-59
2022/09/04 06:19:48;;;;;;;8.10;3.00;;;;;;;;;;3368185;42;20106;-59
2022/09/04 06:22:38;;;;;;;8.85;3.25;;;;;;;;;;3367263;42;20158;-59
2022/09/04 06:25:12;;;;;;;6.35;2.70;;;;;;;;;;3365595;42;20135;-65
2022/09/04 06:27:50;;;;;;;6.60;2.63;;;;;;;;;;3367263;42;20087;-59
2022/09/04 06:30:16;;;;;;;7.88;2.92;;;;;;;;;;3367529;42;20163;-59
2022/09/04 06:33:05;;;;;;;6.33;2.90;;;;;;;;;;3365741;42;20087;-60
2022/09/04 06:35:42;;;;;;;8.25;3.33;;;;;;;;;;3366941;42;20177;-53
2022/09/04 06:38:29;;;;;;;7.80;3.13;;;;;;;;;;3358322;42;20594;-59
2022/09/04 06:41:12;;;;;;;6.70;3.00;;;;;;;;;;3366787;42;20155;-59
2022/09/04 06:44:14;;;;;;;8.65;3.03;;;;;;;;;;3365293;42;20099;-59
2022/09/04 06:46:54;;;;;;;7.50;3.10;;;;;;;;;;3346186;42;20091;-60
2022/09/04 06:49:40;;;;;;;7.93;2.80;;;;;;;;;;3364566;42;20080;-59
2022/09/04 06:52:17;;;;;;;7.50;3.08;;;;;;;;;;3352238;42;20106;-59
2022/09/04 06:55:08;;;;;;;8.45;3.38;;;;;;;;;;3367882;42;20985;-60
2022/09/04 06:57:37;;;;;;;7.40;3.13;;;;;;;;;;3365968;42;20504;-60
2022/09/04 07:00:03;;;;;;;8.07;3.60;;;;;;;;;;3365484;42;20084;-60
2022/09/04 07:02:35;;;;;;;9.70;3.42;;;;;;;;;;3366753;42;20126;-61
2022/09/04 07:05:29;;;;;;;9.43;3.60;;;;;;;;;;3367898;42;20123;-60
2022/09/04 07:08:23;;;;;;;8.40;3.13;;;;;;;;;;3363586;42;20098;-59
2022/09/04 07:11:02;;;;;;;9.10;3.20;;;;;;;;;;3360795;42;20166;-58
2022/09/04 07:13:41;;;;;;;10.52;4.03;;;;;;;;;;3365297;42;20096;-59
2022/09/04 07:16:44;;;;;;;8.90;3.28;;;;;;;;;;3365286;42;20094;-60
2022/09/04 07:19:16;;;;;;;7.47;3.60;;;;;;;;;;3366541;42;20092;-61
2022/09/04 07:21:51;;;;;;;7.97;3.33;;;;;;;;;;3366427;42;20558;-59
2022/09/04 07:24:45;;;;;;;7.50;3.40;;;;;;;;;;3366286;42;20101;-59
2022/09/04 07:27:35;;;;;;;7.25;3.40;;;;;;;;;;3366534;42;20103;-57
2022/09/04 07:30:05;;;;;;;9.25;3.17;;;;;;;;;;3365063;42;20103;-60
2022/09/04 07:32:51;;;;;;;6.95;3.08;;;;;;;;;;3366248;42;20084;-61
2022/09/04 07:35:53;;;;;;;6.95;3.17;;;;;;;;;;3364894;42;20147;-59
2022/09/04 07:38:34;;;;;;;7.03;2.90;;;;;;;;;;3366418;42;20622;-59
2022/09/04 07:41:09;;;;;;;8.52;3.40;;;;;;;;;;3365020;42;20187;-60
2022/09/04 07:44:02;;;;;;;8.23;3.58;;;;;;;;;;3364019;42;20088;-64
2022/09/04 07:46:47;;;;;;;8.40;3.22;;;;;;;;;;3359280;42;20174;-60
2022/09/04 07:49:25;;;;;;;8.00;3.35;;;;;;;;;;3366268;42;20075;-60
2022/09/04 07:52:02;;;;;;;7.70;3.37;;;;;;;;;;3367572;42;20162;-60
2022/09/04 07:54:57;;;;;;;8.60;3.42;;;;;;;;;;3358760;42;20142;-61
2022/09/04 07:57:41;;;;;;;8.07;3.28;;;;;;;;;;3362769;42;20143;-57
2022/09/04 08:00:16;;;;;;;8.18;3.10;;;;;;;;;;3364214;42;20518;-60
2022/09/04 08:02:57;;;;;;;8.60;3.60;;;;;;;;;;3353486;42;20097;-59
2022/09/04 08:05:33;;;;;;;10.27;3.80;;;;;;;;;;3365955;42;20111;-60
2022/09/04 08:08:09;;;;;;;7.32;3.50;;;;;;;;;;3364553;42;20152;-60
2022/09/04 08:10:47;;;;;;;9.73;3.40;;;;;;;;;;3366056;42;20107;-60
2022/09/04 08:13:41;;;;;;;8.27;3.55;;;;;;;;;;3365911;42;20639;-60
2022/09/04 08:16:19;;;;;;;8.00;3.67;;;;;;;;;;3366156;42;20084;-58
2022/09/04 08:19:13;;;;;;;9.23;3.60;;;;;;;;;;3365185;42;20640;-59
2022/09/04 08:21:40;;;;;;;7.63;3.25;;;;;;;;;;3362413;42;20118;-62
2022/09/04 08:24:18;;;;;;;13.95;3.78;;;;;;;;;;3364552;42;20109;-66
2022/09/04 08:27:21;;;;;;;7.78;3.25;;;;;;;;;;3366046;42;20098;-58
2022/09/04 08:29:53;;;;;;;8.85;3.38;;;;;;;;;;3366005;42;20079;-59
2022/09/04 08:32:28;;;;;;;8.90;3.63;;;;;;;;;;3365635;42;20088;-58
2022/09/04 08:35:32;;;;;;;8.30;3.47;;;;;;;;;;3366259;42;20088;-60
2022/09/04 08:38:05;;;;;;;10.32;3.80;;;;;;;;;;3366293;42;20142;-59
2022/09/04 08:40:46;;;;;;;8.45;3.58;;;;;;;;;;3365770;42;20162;-60
2022/09/04 08:43:23;;;;;;;8.45;3.63;;;;;;;;;;3361117;42;20094;-60
2022/09/04 08:46:02;;;;;;;8.53;3.40;;;;;;;;;;3360016;42;20509;-60
2022/09/04 08:48:52;;;;;;;9.00;4.15;;;;;;;;;;3362453;42;20087;-60
2022/09/04 08:51:25;;;;;;;11.48;5.03;;;;;;;;;;3362161;42;20092;-61
2022/09/04 08:54:03;;;;;;;8.10;4.10;;;;;;;;;;3361346;42;20096;-60
2022/09/04 08:56:49;;;;;;;9.30;3.65;;;;;;;;;;3359376;42;20090;-60
2022/09/04 08:59:21;;;;;;;7.60;3.47;;;;;;;;;;3351321;42;20156;-60
2022/09/04 09:02:13;;;;;;;9.43;4.00;;;;;;;;;;3361727;42;20127;-62
2022/09/04 09:04:58;;;;;;;7.32;3.40;;;;;;;;;;3357688;42;20668;-60
2022/09/04 09:07:42;;;;;;;9.05;3.83;;;;;;;;;;3361388;42;20076;-60
2022/09/04 09:10:11;;;;;;;9.27;3.80;;;;;;;;;;3362524;42;20131;-59
2022/09/04 09:12:46;;;;;;;8.37;3.50;;;;;;;;;;3361545;42;20143;-61
2022/09/04 09:15:49;;;;;;;7.63;3.22;;;;;;;;;;3360360;42;20187;-59
2022/09/04 09:18:34;;;;;;;10.23;3.92;;;;;;;;;;3361097;42;20102;-61
2022/09/04 09:21:29;;;;;;;9.90;4.05;;;;;;;;;;3362416;42;20150;-60
2022/09/04 09:24:20;;;;;;;10.75;4.38;;;;;;;;;;3343926;42;20093;-60
2022/09/04 09:27:04;;;;;;;13.67;4.73;;;;;;;;;;3358777;42;20106;-61
2022/09/04 09:29:40;;;;;;;10.75;4.88;;;;;;;;;;3360587;42;20095;-59
2022/09/04 09:32:44;;;;;;;8.40;4.43;;;;;;;;;;3370251;42;20551;-60
2022/09/04 09:35:22;;;;;;;7.57;3.53;;;;;;;;;;3365739;42;20144;-59
2022/09/04 09:38:18;;;;;;;7.72;3.40;;;;;;;;;;3365287;42;20123;-59
2022/09/04 09:41:27;;;;;;;8.93;3.43;;;;;;;;;;3365571;42;20080;-61
2022/09/04 09:44:25;;;;;;;9.30;3.45;;;;;;;;;;3363986;42;20101;-60
2022/09/04 09:46:54;;;;;;;8.32;3.72;;;;;;;;;;3360411;42;20106;-61
2022/09/04 09:49:20;;;;;;;7.88;3.20;;;;;;;;;;3366457;42;20075;-60
2022/09/04 09:52:07;;;;;;;7.53;3.40;;;;;;;;;;3365241;42;20131;-59
2022/09/04 09:54:51;;;;;;;8.50;3.07;;;;;;;;;;3365495;42;20314;-62
2022/09/04 09:57:24;;;;;;;9.60;3.17;;;;;;;;;;3366421;42;20087;-61
2022/09/04 10:00:09;;;;;;;8.45;3.20;;;;;;;;;;3363759;42;20094;-60
2022/09/04 10:02:54;;;;;;;10.23;3.20;;;;;;;;;;3362364;42;20188;-61
2022/09/04 10:05:41;;;;;;;9.00;3.70;;;;;;;;;;3360868;42;20503;-60
2022/09/04 10:08:29;;;;;;;10.27;3.20;;;;;;;;;;3364892;42;20159;-60
2022/09/04 10:11:16;;;;;;;7.35;3.15;;;;;;;;;;3365004;42;20118;-61
2022/09/04 10:14:01;;;;;;;7.72;3.10;;;;;;;;;;3365434;42;20091;-60
2022/09/04 10:17:08;;;;;;;7.88;3.30;;;;;;;;;;3363939;42;20498;-61
2022/09/04 10:19:45;;;;;;;8.57;3.50;;;;;;;;;;3355128;42;20139;-61
2022/09/04 10:22:17;;;;;;;12.43;5.00;;;;;;;;;;3363696;42;20088;-61
2022/09/04 10:25:05;;;;;;;16.77;7.65;;;;;;;;;;3366468;42;20088;-63
2022/09/04 10:28:09;;;;;;;15.02;6.50;;;;;;;;;;3359316;42;20100;-62
2022/09/04 10:30:42;;;;;;;11.30;4.82;;;;;;;;;;3361982;42;20564;-61
2022/09/04 10:33:25;;;;;;;11.27;4.43;;;;;;;;;;3362478;42;20076;-61
2022/09/04 10:36:17;;;;;;;8.43;3.97;;;;;;;;;;3360744;42;20597;-61
2022/09/04 10:41:58;;;;;;;12.95;4.45;;;;;;;;;;3361010;42;20554;-62
2022/09/04 10:44:51;;;;;;;12.27;4.90;;;;;;;;;;3361847;42;20151;-62
2022/09/04 10:47:37;;;;;;;11.00;4.65;;;;;;;;;;3362333;42;20092;-64
2022/09/04 10:50:19;;;;;;;12.60;4.87;;;;;;;;;;3347780;42;20088;-60
2022/09/04 10:53:04;;;;;;;12.75;5.00;;;;;;;;;;3363861;42;20565;-61
2022/09/04 10:56:00;;;;;;;12.15;5.00;;;;;;;;;;3366150;42;20096;-61
2022/09/04 10:58:47;;;;;;;12.35;4.88;;;;;;;;;;3364169;42;20560;-61
2022/09/04 11:01:26;;;;;;;14.40;5.80;;;;;;;;;;3366384;42;20115;-61
2022/09/04 11:04:12;;;;;;;14.27;5.77;;;;;;;;;;3366976;42;20560;-61
2022/09/04 11:07:17;;;;;;;12.00;5.30;;;;;;;;;;3363834;42;20135;-60
2022/09/04 11:09:58;;;;;;;12.40;5.10;;;;;;;;;;3358704;42;20135;-61
2022/09/04 11:12:46;;;;;;;13.63;5.10;;;;;;;;;;3365285;42;20084;-63
2022/09/04 11:15:57;;;;;;;12.30;4.90;;;;;;;;;;3365025;42;20088;-59
2022/09/04 11:18:52;;;;;;;11.07;5.00;;;;;;;;;;3348819;42;20166;-61
2022/09/04 11:21:29;;;;;;;11.75;5.00;;;;;;;;;;3366184;42;20211;-63
2022/09/04 11:24:12;;;;;;;10.50;4.63;;;;;;;;;;3366322;42;20103;-60
2022/09/04 11:26:59;;;;;;;14.07;4.78;;;;;;;;;;3366304;42;20161;-59
2022/09/04 11:29:44;;;;;;;14.38;5.47;;;;;;;;;;3367474;42;20199;-62
2022/09/04 11:32:19;;;;;;;11.90;5.53;;;;;;;;;;3362712;42;20572;-61
2022/09/04 11:35:05;;;;;;;13.95;5.72;;;;;;;;;;3366228;42;20214;-60
2022/09/04 11:37:55;;;;;;;13.20;5.63;;;;;;;;;;3359575;42;20143;-62
2022/09/04 11:40:32;;;;;;;12.88;5.55;;;;;;;;;;3359609;42;20142;-61
2022/09/04 11:43:17;;;;;;;12.50;5.38;;;;;;;;;;3365917;42;20143;-64
2022/09/04 11:46:13;;;;;;;14.80;5.90;;;;;;;;;;3360622;42;20095;-61
2022/09/04 11:48:52;;;;;;;13.52;6.00;;;;;;;;;;3362185;42;20110;-62
2022/09/04 11:51:23;;;;;;;13.70;5.82;;;;;;;;;;3362368;42;20193;-62
2022/09/04 11:54:23;;;;;;;12.82;5.78;;;;;;;;;;3366500;42;20095;-59
2022/09/04 11:57:07;;;;;;;12.68;5.72;;;;;;;;;;3365046;42;20088;-60
2022/09/04 11:59:57;;;;;;;13.07;5.73;;;;;;;;;;3367390;42;20602;-63
2022/09/04 12:02:33;;;;;;;13.27;5.95;;;;;;;;;;3366089;42;20088;-61
2022/09/04 12:05:38;;;;;;;16.17;7.00;;;;;;;;;;3365895;42;21296;-59
2022/09/04 12:08:34;;;;;;;19.25;7.53;;;;;;;;;;3366701;42;20135;-64
2022/09/04 12:11:37;;;;;;;14.18;6.43;;;;;;;;;;3362455;42;20096;-60
2022/09/04 12:14:18;;;;;;;13.73;6.37;;;;;;;;;;3361701;42;20107;-61
2022/09/04 12:17:02;;;;;;;14.75;6.13;;;;;;;;;;3366715;42;20500;-60
2022/09/04 12:19:41;;;;;;;13.98;6.20;;;;;;;;;;3362507;42;20106;-60
2022/09/04 12:22:44;;;;;;;12.07;5.72;;;;;;;;;;3366090;42;20099;-60
2022/09/04 12:25:13;;;;;;;13.82;6.68;;;;;;;;;;3366083;42;20095;-60
2022/09/04 12:27:54;;;;;;;14.67;6.47;;;;;;;;;;3367109;42;20213;-64
2022/09/04 12:30:48;;;;;;;15.43;6.47;;;;;;;;;;3367072;42;20100;-62
2022/09/04 12:33:41;;;;;;;15.77;6.75;;;;;;;;;;3356146;42;20183;-59
2022/09/04 12:36:13;;;;;;;18.27;6.68;;;;;;;;;;3365800;42;20095;-60
2022/09/04 12:38:51;;;;;;;14.73;6.40;;;;;;;;;;3366639;42;20495;-60
2022/09/04 12:41:23;;;;;;;14.83;6.40;;;;;;;;;;3366815;42;20096;-61
2022/09/04 12:44:39;;;;;;;14.50;6.50;;;;;;;;;;3366454;42;20143;-60
2022/09/04 12:47:18;;;;;;;15.70;6.47;;;;;;;;;;3354213;42;20562;-60
2022/09/04 12:50:14;;;;;;;18.58;7.57;;;;;;;;;;3365688;42;20602;-62
2022/09/04 12:53:14;;;;;;;16.35;7.03;;;;;;;;;;3357756;42;20088;-60
2022/09/04 12:55:57;;;;;;;16.97;7.33;;;;;;;;;;3364575;42;20131;-61
2022/09/04 12:58:54;;;;;;;14.30;6.28;;;;;;;;;;3365955;42;20096;-61
2022/09/04 13:01:39;;;;;;;15.85;6.43;;;;;;;;;;3366203;42;20075;-62
2022/09/04 13:04:26;;;;;;;18.13;8.13;;;;;;;;;;3361107;42;20501;-61
2022/09/04 13:07:13;;;;;;;17.20;7.40;;;;;;;;;;3364542;42;20087;-62
2022/09/04 13:10:20;;;;;;;16.10;6.97;;;;;;;;;;3364902;42;20110;-61
2022/09/04 13:12:55;;;;;;;13.75;6.40;;;;;;;;;;3358474;42;20088;-60
2022/09/04 13:15:27;;;;;;;13.27;6.10;;;;;;;;;;3364343;42;20127;-62
2022/09/04 13:18:45;;;;;;;14.50;6.68;;;;;;;;;;3365479;42;20091;-60
2022/09/04 13:21:29;;;;;;;20.50;8.77;;;;;;;;;;3338194;42;20095;-60
2022/09/04 13:23:58;;;;;;;17.13;7.93;;;;;;;;;;3361157;42;20139;-61
2022/09/04 13:26:33;;;;;;;18.05;8.18;;;;;;;;;;3366328;42;20895;-64
2022/09/04 13:29:26;;;;;;;17.85;8.20;;;;;;;;;;3365997;42;20099;-63
2022/09/04 13:32:14;;;;;;;17.85;8.57;;;;;;;;;;3364361;42;20103;-60
2022/09/04 13:34:40;;;;;;;18.10;7.60;;;;;;;;;;3357609;42;20092;-59
2022/09/04 13:37:26;;;;;;;18.30;7.80;;;;;;;;;;3365286;42;20158;-62
2022/09/04 13:39:56;;;;;;;19.52;7.18;;;;;;;;;;3363590;42;20124;-61
2022/09/04 13:42:26;;;;;;;14.75;6.85;;;;;;;;;;3364033;42;20100;-60
2022/09/04 13:45:00;;;;;;;15.52;6.55;;;;;;;;;;3363738;42;20096;-60
2022/09/04 13:47:48;;;;;;;15.73;6.93;;;;;;;;;;3363811;42;20095;-61
2022/09/04 13:50:21;;;;;;;12.95;6.40;;;;;;;;;;3364970;42;20099;-63
2022/09/04 13:53:14;;;;;;;13.85;6.15;;;;;;;;;;3363974;42;20083;-62
2022/09/04 13:55:44;;;;;;;14.55;6.13;;;;;;;;;;3355499;42;20088;-60
2022/09/04 13:58:32;;;;;;;14.88;6.15;;;;;;;;;;3363653;42;20087;-60
2022/09/04 14:01:00;;;;;;;14.53;6.33;;;;;;;;;;3364963;42;20117;-63
2022/09/04 14:03:29;;;;;;;13.02;5.97;;;;;;;;;;3365952;42;20098;-60
2022/09/04 14:05:55;;;;;;;14.95;6.28;;;;;;;;;;3368157;42;20094;-59
2022/09/04 14:08:22;;;;;;;16.60;6.60;;;;;;;;;;3366902;42;20135;-61
2022/09/04 14:11:03;;;;;;;21.10;7.63;;;;;;;;;;3365887;42;20286;-60
2022/09/04 14:13:45;;;;;;;23.47;9.20;;;;;;;;;;3364058;42;20076;-63
2022/09/04 14:16:13;;;;;;;33.92;10.80;;;;;;;;;;3365995;42;20096;-62
2022/09/04 14:18:43;;;;;;;32.30;11.45;;;;;;;;;;3365762;42;20115;-64
2022/09/04 14:21:32;;;;;;;31.38;11.25;;;;;;;;;;3365539;42;20554;-66
2022/09/04 14:24:09;;;;;;;30.45;10.80;;;;;;;;;;3369051;42;20102;-65
2022/09/04 14:27:14;;;;;;;18.93;7.57;;;;;;;;;;3356484;42;20108;-62
2022/09/04 14:30:13;;;;;;;33.58;12.23;;;;;;;;;;3361774;42;20095;-61
2022/09/04 14:33:02;;;;;;;40.10;13.65;;;;;;;;;;3359915;42;20107;-63
2022/09/04 14:35:52;;;;;;;40.60;14.93;;;;;;;;;;3363876;42;20084;-62
2022/09/04 14:38:34;;;;;;;31.15;11.18;;;;;;;;;;3359060;42;20095;-61
2022/09/04 14:41:30;;;;;;;32.93;12.17;;;;;;;;;;3365150;42;20100;-64
2022/09/04 14:44:02;;;;;;;33.13;11.85;;;;;;;;;;3363766;42;20092;-61
2022/09/04 14:47:08;;;;;;;32.40;12.25;;;;;;;;;;3363227;42;20170;-61
2022/09/04 14:49:40;;;;;;;35.85;12.40;;;;;;;;;;3328834;42;20140;-61
2022/09/04 14:52:13;;;;;;;40.53;14.70;;;;;;;;;;3357629;42;20087;-62
2022/09/04 14:54:45;;;;;;;38.53;13.80;;;;;;;;;;3351869;42;20099;-59
2022/09/04 14:57:35;;;;;;;27.17;10.95;;;;;;;;;;3361170;42;20099;-61
2022/09/04 15:00:07;;;;;;;28.75;11.02;;;;;;;;;;3360352;42;20090;-61
2022/09/04 15:02:56;;;;;;;22.00;8.07;;;;;;;;;;3367360;42;20092;-62
2022/09/04 15:05:46;;;;;;;15.57;6.65;;;;;;;;;;3366178;42;20091;-64
2022/09/04 15:08:25;;;;;;;14.93;6.23;;;;;;;;;;3360539;42;20147;-63
2022/09/04 15:10:53;;;;;;;14.48;6.75;;;;;;;;;;3364800;42;20092;-63
2022/09/04 15:13:30;;;;;;;14.88;6.68;;;;;;;;;;3365659;42;20091;-64
2022/09/04 15:16:10;;;;;;;13.43;6.35;;;;;;;;;;3366918;42;20095;-62
2022/09/04 15:18:39;;;;;;;12.77;6.18;;;;;;;;;;3365892;42;20104;-64
2022/09/04 15:21:26;;;;;;;12.63;6.00;;;;;;;;;;3372429;42;20084;-67
2022/09/04 15:24:24;;;;;;;16.05;6.03;;;;;;;;;;3365541;42;20229;-66
2022/09/04 15:26:54;;;;;;;15.02;6.30;;;;;;;;;;3364033;42;20084;-65
2022/09/04 15:29:39;;;;;;;14.23;6.22;;;;;;;;;;3366283;42;20157;-65
2022/09/04 15:32:07;;;;;;;12.95;6.15;;;;;;;;;;3366778;42;20108;-64
2022/09/04 15:34:33;;;;;;;13.43;6.60;;;;;;;;;;3364157;42;20095;-65
2022/09/04 15:37:18;;;;;;;13.55;6.28;;;;;;;;;;3363948;42;20100;-65
2022/09/04 15:39:53;;;;;;;14.98;6.10;;;;;;;;;;3363741;42;20091;-64
2022/09/04 15:43:04;;;;;;;15.05;6.53;;;;;;;;;;3365507;42;20632;-64
2022/09/04 15:45:41;;;;;;;16.70;6.85;;;;;;;;;;3361741;42;20871;-67
2022/09/04 15:48:46;;;;;;;15.73;7.60;;;;;;;;;;3362266;42;20566;-63
2022/09/04 15:51:15;;;;;;;15.40;6.75;;;;;;;;;;3362109;42;20195;-63
2022/09/04 15:53:45;;;;;;;16.33;7.88;;;;;;;;;;3364232;42;20083;-65
2022/09/04 15:56:22;;;;;;;16.63;7.75;;;;;;;;;;3362887;42;20155;-63
2022/09/04 15:58:51;;;;;;;17.02;8.00;;;;;;;;;;3365848;42;20087;-65
2022/09/04 16:01:21;;;;;;;14.73;7.20;;;;;;;;;;3358328;42;20175;-66
2022/09/04 16:04:25;;;;;;;16.88;7.05;;;;;;;;;;3351520;42;20188;-63
2022/09/04 16:06:58;;;;;;;17.65;8.13;;;;;;;;;;3348680;42;20104;-62
2022/09/04 16:09:33;;;;;;;16.65;7.63;;;;;;;;;;3362544;42;20099;-63
2022/09/04 16:12:02;;;;;;;17.42;7.88;;;;;;;;;;3362577;42;20103;-63
2022/09/04 16:14:38;;;;;;;20.10;7.93;;;;;;;;;;3360554;42;20103;-66